Time;durP1;ratioP1;P1;durP2;ratioP2;P2;SDS_P1;SDS_P2;PMS_P1;PMS_P2;Temp;Humidity;BMP_temperature;BMP_pressure;BME280_temperature;BME280_humidity;BME280_pressure;Samples;Min_cycle;Max_cycle;Signal;HPM_P1;HPM_P2
2022/01/19 00:01:53;;;;;;;6.28;1.98;;;9.20;80.30;;;;;;5091774;28;20505;-70
2022/01/19 00:04:21;;;;;;;5.15;2.30;;;9.20;80.50;;;;;;5081804;28;20063;-70
2022/01/19 00:06:48;;;;;;;4.78;2.65;;;9.20;80.60;;;;;;5075925;28;20044;-70
2022/01/19 00:09:35;;;;;;;3.78;1.90;;;9.10;80.70;;;;;;5064793;28;20036;-70
2022/01/19 00:12:02;;;;;;;4.38;2.25;;;9.20;81.30;;;;;;5075330;28;20105;-69
2022/01/19 00:14:30;;;;;;;3.42;2.03;;;9.10;81.30;;;;;;5083006;28;20040;-70
2022/01/19 00:16:58;;;;;;;2.88;1.77;;;9.10;81.50;;;;;;5080529;28;20560;-70
2022/01/19 00:19:25;;;;;;;4.93;2.03;;;9.10;81.70;;;;;;5093806;28;20456;-69
2022/01/19 00:21:53;;;;;;;5.32;1.92;;;9.10;81.20;;;;;;5076611;28;20040;-71
2022/01/19 00:24:20;;;;;;;2.60;1.60;;;9.10;80.70;;;;;;5081343;28;20045;-70
2022/01/19 00:26:48;;;;;;;9.82;3.33;;;9.00;80.40;;;;;;5071598;28;20145;-70
2022/01/19 00:29:16;;;;;;;9.02;1.52;;;9.00;81.20;;;;;;5069341;28;20055;-70
2022/01/19 00:31:43;;;;;;;4.80;1.65;;;9.10;80.40;;;;;;5089943;28;20062;-70
2022/01/19 00:34:11;;;;;;;6.18;1.60;;;9.00;79.70;;;;;;5082081;28;20040;-69
2022/01/19 00:36:39;;;;;;;7.72;2.05;;;9.00;79.50;;;;;;5075532;28;20056;-70
2022/01/19 00:39:06;;;;;;;3.83;2.03;;;9.00;79.00;;;;;;5042392;28;20094;-70
2022/01/19 00:41:34;;;;;;;2.85;1.30;;;9.00;78.50;;;;;;5085645;28;20064;-70
2022/01/19 00:44:01;;;;;;;3.17;1.30;;;9.00;78.30;;;;;;5066166;28;20443;-69
2022/01/19 00:46:29;;;;;;;4.00;2.05;;;9.10;78.20;;;;;;5090075;28;20032;-70
2022/01/19 00:48:57;;;;;;;3.28;1.35;;;9.10;77.60;;;;;;5089856;28;20119;-70
2022/01/19 00:51:24;;;;;;;3.10;1.52;;;9.10;77.80;;;;;;5092027;28;20043;-70
2022/01/19 00:53:52;;;;;;;2.22;1.27;;;9.20;77.60;;;;;;5064250;28;20139;-69
2022/01/19 00:56:19;;;;;;;3.92;1.60;;;9.10;77.50;;;;;;5092197;28;20513;-70
2022/01/19 00:58:47;;;;;;;3.63;1.83;;;9.10;77.70;;;;;;5078346;28;20039;-70
2022/01/19 01:01:14;;;;;;;2.03;1.20;;;9.10;77.30;;;;;;5068637;28;20044;-70
2022/01/19 01:03:42;;;;;;;4.85;1.90;;;9.10;77.40;;;;;;5080376;28;20048;-69
2022/01/19 01:06:10;;;;;;;3.35;1.42;;;9.10;77.30;;;;;;5088328;28;20048;-70
2022/01/19 01:08:37;;;;;;;3.05;1.40;;;9.10;77.30;;;;;;5073469;28;20071;-69
2022/01/19 01:11:05;;;;;;;3.55;1.77;;;9.10;77.20;;;;;;5055177;28;20068;-70
2022/01/19 01:16:32;;;;;;;3.30;1.30;;;9.10;77.30;;;;;;5088200;28;20105;-70
2022/01/19 01:19:01;;;;;;;9.32;1.77;;;9.10;77.40;;;;;;5081477;28;20036;-70
2022/01/19 01:21:30;;;;;;;3.50;1.90;;;9.10;77.40;;;;;;5055176;28;20079;-70
2022/01/19 01:23:58;;;;;;;1.27;1.08;;;9.10;77.30;;;;;;5068362;28;20526;-70
2022/01/19 01:26:26;;;;;;;3.70;1.35;;;9.00;77.60;;;;;;5067214;28;20528;-69
2022/01/19 01:28:56;;;;;;;3.15;1.20;;;9.00;77.40;;;;;;5082771;28;20446;-71
2022/01/19 01:31:25;;;;;;;2.72;1.92;;;9.00;77.00;;;;;;5089216;28;20052;-70
2022/01/19 01:33:52;;;;;;;3.83;1.60;;;8.90;77.10;;;;;;5076172;28;20174;-70
2022/01/19 01:36:20;;;;;;;5.63;2.13;;;8.90;77.30;;;;;;5075064;28;20046;-69
2022/01/19 01:38:48;;;;;;;4.30;1.48;;;8.90;77.30;;;;;;5063431;28;20548;-69
2022/01/19 01:41:16;;;;;;;3.28;1.50;;;8.90;77.80;;;;;;5091116;28;20044;-69
2022/01/19 01:43:49;;;;;;;2.00;0.88;;;8.90;78.30;;;;;;5056786;28;20040;-70
2022/01/19 01:46:57;;;;;;;3.08;1.67;;;8.90;78.60;;;;;;5075633;28;20044;-69
2022/01/19 01:49:20;;;;;;;1.88;1.00;;;8.80;78.40;;;;;;5071255;28;20521;-70
2022/01/19 01:54:34;;;;;;;2.28;1.13;;;8.80;78.20;;;;;;5087151;28;20580;-70
2022/01/19 01:57:02;;;;;;;2.95;1.48;;;8.70;78.40;;;;;;5063967;28;20040;-68
2022/01/19 01:59:33;;;;;;;4.88;1.58;;;8.70;78.60;;;;;;5084533;28;20044;-69
2022/01/19 02:02:36;;;;;;;3.97;1.52;;;8.70;78.70;;;;;;5062676;28;20055;-69
2022/01/19 02:05:08;;;;;;;2.67;1.55;;;8.70;78.60;;;;;;5078024;28;20739;-69
2022/01/19 02:07:58;;;;;;;4.05;1.30;;;8.60;78.80;;;;;;5063870;28;20123;-70
2022/01/19 02:10:59;;;;;;;3.53;2.28;;;8.60;78.80;;;;;;5088961;28;20055;-72
2022/01/19 02:21:46;;;;;;;4.40;1.63;;;8.60;79.50;;;;;;5092584;28;20032;-71
2022/01/19 02:24:19;;;;;;;6.32;1.95;;;8.60;79.60;;;;;;5092571;28;20118;-71
2022/01/19 02:29:57;;;;;;;3.28;1.70;;;8.60;80.20;;;;;;5093854;28;20075;-70
2022/01/19 02:40:31;;;;;;;4.60;1.90;;;8.50;80.80;;;;;;5066005;28;20052;-71
2022/01/19 02:51:09;;;;;;;3.08;1.35;;;8.40;81.80;;;;;;5077671;28;20036;-72
2022/01/19 02:53:56;;;;;;;3.10;1.42;;;8.40;81.80;;;;;;5078271;28;20044;-72
2022/01/19 02:56:51;;;;;;;2.75;1.85;;;8.40;81.70;;;;;;5043060;28;20045;-70
2022/01/19 02:59:30;;;;;;;5.18;1.33;;;8.30;81.70;;;;;;5070733;28;20052;-71
2022/01/19 03:10:17;;;;;;;;;;;8.40;81.50;;;;;;5054141;28;20406;-70
2022/01/19 03:12:45;;;;;;;3.83;1.58;;;8.40;81.40;;;;;;5071368;28;19920;-70
2022/01/19 03:15:14;;;;;;;4.10;2.20;;;8.40;81.90;;;;;;5074487;28;20037;-72
2022/01/19 03:17:42;;;;;;;2.85;1.30;;;8.40;82.60;;;;;;5075348;28;20472;-71
2022/01/19 03:20:11;;;;;;;3.22;1.45;;;8.30;81.90;;;;;;5059184;28;20394;-70
2022/01/19 03:23:03;;;;;;;1.85;1.13;;;8.40;82.10;;;;;;5076880;28;20040;-71
2022/01/19 03:25:37;;;;;;;2.83;1.73;;;8.30;82.00;;;;;;5042191;28;20139;-71
2022/01/19 03:28:05;;;;;;;2.25;1.65;;;8.30;82.20;;;;;;5059050;28;20432;-71
2022/01/19 03:30:33;;;;;;;4.63;1.20;;;8.30;82.20;;;;;;5058871;28;20040;-70
2022/01/19 03:33:01;;;;;;;3.13;1.30;;;8.30;82.20;;;;;;5042288;28;20140;-71
2022/01/19 03:35:30;;;;;;;3.65;1.40;;;8.30;82.30;;;;;;5075384;28;20040;-71
2022/01/19 03:37:57;;;;;;;2.60;1.35;;;8.30;82.30;;;;;;5075270;28;20064;-71
2022/01/19 03:40:25;;;;;;;3.83;1.77;;;8.30;82.40;;;;;;5075249;28;20059;-71
2022/01/19 03:42:53;;;;;;;8.82;1.73;;;8.20;82.30;;;;;;5042167;28;20060;-70
2022/01/19 03:45:37;;;;;;;4.47;1.55;;;8.10;82.30;;;;;;5058908;28;20087;-71
2022/01/19 03:50:37;;;;;;;3.60;1.30;;;8.00;82.60;;;;;;5074863;28;20044;-70
2022/01/19 03:53:04;;;;;;;2.65;1.20;;;8.00;82.50;;;;;;5074702;28;20036;-71
2022/01/19 03:55:32;;;;;;;1.65;1.08;;;8.00;82.40;;;;;;5075031;28;20044;-71
2022/01/19 03:57:59;;;;;;;3.03;1.35;;;8.00;82.20;;;;;;5074755;28;20055;-71
2022/01/19 04:00:28;;;;;;;4.53;2.10;;;8.00;82.10;;;;;;5074963;28;20064;-72
2022/01/19 04:02:57;;;;;;;5.70;1.83;;;8.00;82.50;;;;;;5074617;28;20128;-71
2022/01/19 04:05:41;;;;;;;8.63;3.08;;;8.00;82.70;;;;;;5058127;28;20052;-70
2022/01/19 04:08:09;;;;;;;5.95;2.10;;;8.00;82.90;;;;;;5075858;28;20048;-71
2022/01/19 04:10:36;;;;;;;8.38;2.13;;;7.90;83.10;;;;;;5074430;28;20037;-71
2022/01/19 04:13:25;;;;;;;2.25;1.50;;;7.90;83.10;;;;;;5057575;28;20394;-71
2022/01/19 04:15:52;;;;;;;5.47;2.42;;;7.90;82.90;;;;;;5075799;28;20563;-71
2022/01/19 04:18:20;;;;;;;4.68;1.70;;;7.90;83.00;;;;;;5075789;28;20051;-71
2022/01/19 04:20:51;;;;;;;7.35;2.28;;;7.90;83.10;;;;;;5074194;28;20475;-71
2022/01/19 04:23:22;;;;;;;3.53;1.58;;;7.90;83.10;;;;;;5074714;28;20051;-70
2022/01/19 04:25:49;;;;;;;4.88;1.40;;;7.90;83.10;;;;;;5057018;28;20048;-71
2022/01/19 04:28:17;;;;;;;4.40;1.75;;;7.90;82.90;;;;;;5074305;28;20045;-70
2022/01/19 04:30:48;;;;;;;4.13;1.75;;;7.90;82.60;;;;;;5057574;28;20052;-71
2022/01/19 04:33:22;;;;;;;6.10;2.00;;;7.90;82.40;;;;;;5057529;28;20045;-70
2022/01/19 04:35:52;;;;;;;4.40;2.00;;;7.90;82.40;;;;;;5074456;28;20522;-71
2022/01/19 04:39:16;;;;;;;5.63;3.78;;;7.90;82.60;;;;;;5074306;28;20474;-71
2022/01/19 04:44:29;;;;;;;5.25;2.15;;;7.80;82.40;;;;;;5075210;28;20626;-72
2022/01/19 05:03:49;;;;;;;5.32;1.63;;;7.80;82.90;;;;;;5075137;28;20049;-71
2022/01/19 05:06:40;;;;;;;3.42;2.13;;;7.80;83.30;;;;;;5076691;28;20052;-70
2022/01/19 05:09:23;;;;;;;3.60;1.30;;;7.70;83.40;;;;;;5057360;28;20068;-71
2022/01/19 05:14:38;;;;;;;3.70;1.73;;;7.70;83.50;;;;;;5056970;28;20041;-71
2022/01/19 05:17:06;;;;;;;3.60;1.67;;;7.70;83.30;;;;;;5056851;28;20041;-70
2022/01/19 05:19:33;;;;;;;4.82;1.73;;;7.70;83.70;;;;;;5073370;28;20433;-70
2022/01/19 05:22:01;;;;;;;3.03;1.80;;;7.70;83.80;;;;;;5040170;28;20475;-71
2022/01/19 05:24:46;;;;;;;4.78;1.60;;;7.70;84.20;;;;;;5056502;28;20140;-71
2022/01/19 05:27:37;;;;;;;5.15;1.60;;;7.70;84.00;;;;;;5073139;28;20123;-71
2022/01/19 05:30:05;;;;;;;4.28;1.25;;;7.70;84.40;;;;;;5073022;28;20041;-68
2022/01/19 05:32:33;;;;;;;3.60;1.40;;;7.60;84.30;;;;;;5074056;28;20131;-68
2022/01/19 05:35:00;;;;;;;2.78;1.40;;;7.60;84.60;;;;;;5056072;28;20052;-69
2022/01/19 05:37:48;;;;;;;3.67;1.40;;;7.50;84.50;;;;;;5072803;28;20044;-69
2022/01/19 05:40:34;;;;;;;4.97;2.10;;;7.60;84.60;;;;;;5075327;28;20515;-68
2022/01/19 05:43:03;;;;;;;2.13;1.40;;;7.50;84.50;;;;;;5056216;28;20044;-69
2022/01/19 05:45:30;;;;;;;8.10;1.75;;;7.50;84.40;;;;;;5056252;28;20151;-69
2022/01/19 05:48:10;;;;;;;3.70;1.75;;;7.60;84.70;;;;;;5056558;28;20044;-69
2022/01/19 05:50:42;;;;;;;12.30;2.03;;;7.60;85.00;;;;;;5072615;28;20383;-68
2022/01/19 05:53:13;;;;;;;3.63;1.70;;;7.60;85.00;;;;;;5073014;28;20075;-70
2022/01/19 05:55:41;;;;;;;4.82;1.98;;;7.60;85.30;;;;;;5056153;28;20060;-70
2022/01/19 05:58:08;;;;;;;4.97;2.75;;;7.50;85.10;;;;;;5056262;28;20048;-71
2022/01/19 06:00:36;;;;;;;6.50;3.13;;;7.60;85.10;;;;;;5072885;28;20055;-70
2022/01/19 06:03:04;;;;;;;3.53;2.00;;;7.60;85.40;;;;;;5072319;28;20379;-70
2022/01/19 06:06:01;;;;;;;5.70;1.63;;;7.60;85.50;;;;;;5072532;28;20075;-70
2022/01/19 06:08:43;;;;;;;2.88;1.30;;;7.60;85.50;;;;;;5072364;28;20090;-69
2022/01/19 06:11:13;;;;;;;4.45;1.50;;;7.60;85.60;;;;;;5072200;28;20491;-70
2022/01/19 06:13:44;;;;;;;3.85;2.15;;;7.60;85.40;;;;;;5072286;28;20051;-69
2022/01/19 06:16:11;;;;;;;3.25;1.75;;;7.60;85.00;;;;;;5089326;28;20056;-68
2022/01/19 06:18:42;;;;;;;3.47;1.63;;;7.60;85.00;;;;;;5072170;28;20036;-69
2022/01/19 06:21:11;;;;;;;4.03;1.90;;;7.70;84.80;;;;;;5071437;28;20139;-69
2022/01/19 06:23:42;;;;;;;5.32;2.70;;;7.80;85.00;;;;;;5072209;28;20048;-70
2022/01/19 06:26:12;;;;;;;6.55;2.05;;;8.10;84.60;;;;;;5055610;28;20045;-71
2022/01/19 06:28:40;;;;;;;3.15;1.70;;;8.60;83.60;;;;;;5071895;28;20044;-69
2022/01/19 06:31:07;;;;;;;2.58;1.50;;;9.20;82.10;;;;;;5088799;28;20155;-70
2022/01/19 06:33:36;;;;;;;4.60;2.00;;;9.80;80.60;;;;;;5055861;28;20067;-70
2022/01/19 06:36:05;;;;;;;4.05;1.98;;;10.40;79.20;;;;;;5072317;28;20115;-70
2022/01/19 06:38:47;;;;;;;3.47;1.90;;;11.10;77.30;;;;;;5055278;28;20047;-69
2022/01/19 06:41:32;;;;;;;4.22;2.13;;;11.80;75.90;;;;;;5071888;28;20558;-70
2022/01/19 06:44:00;;;;;;;4.40;2.00;;;12.40;74.60;;;;;;5055475;28;20143;-68
2022/01/19 06:46:28;;;;;;;6.75;2.67;;;13.10;73.30;;;;;;5055346;28;20566;-70
2022/01/19 06:48:55;;;;;;;5.75;2.30;;;13.60;72.30;;;;;;5072649;28;20043;-71
2022/01/19 06:51:23;;;;;;;3.38;1.52;;;14.10;71.30;;;;;;5072062;28;20040;-70
2022/01/19 06:53:58;;;;;;;3.42;2.30;;;14.60;70.40;;;;;;5055705;28;20049;-70
2022/01/19 06:56:37;;;;;;;9.45;2.72;;;15.20;69.60;;;;;;5072270;28;20072;-71
2022/01/19 06:59:24;;;;;;;6.20;2.05;;;15.70;68.40;;;;;;5055186;28;20049;-71
2022/01/19 07:02:04;;;;;;;5.78;2.35;;;16.30;67.30;;;;;;5072019;28;20040;-71
2022/01/19 07:04:49;;;;;;;5.45;2.35;;;16.80;67.00;;;;;;5057592;28;20041;-71
2022/01/19 07:07:37;;;;;;;8.73;2.22;;;17.20;65.60;;;;;;5072765;28;20056;-71
2022/01/19 07:10:07;;;;;;;6.30;2.42;;;17.80;64.80;;;;;;5055291;28;20083;-72
2022/01/19 07:12:37;;;;;;;5.55;2.15;;;18.10;64.20;;;;;;5071660;28;20048;-72
2022/01/19 07:15:07;;;;;;;5.30;3.03;;;18.60;63.40;;;;;;5054949;28;20042;-72
2022/01/19 07:17:35;;;;;;;6.78;2.30;;;18.90;62.70;;;;;;5055344;28;20084;-71
2022/01/19 07:20:05;;;;;;;5.88;2.75;;;19.40;62.10;;;;;;5055554;28;20040;-71
2022/01/19 07:22:33;;;;;;;4.03;2.60;;;19.90;61.30;;;;;;5071922;28;20556;-73
2022/01/19 07:25:03;;;;;;;6.13;2.13;;;20.30;60.90;;;;;;5071373;28;20044;-71
2022/01/19 07:27:31;;;;;;;7.93;2.80;;;20.70;60.40;;;;;;5055229;28;20051;-72
2022/01/19 07:29:59;;;;;;;5.82;2.88;;;21.10;59.60;;;;;;5071632;28;20043;-71
2022/01/19 07:32:30;;;;;;;6.15;3.63;;;21.40;59.00;;;;;;5071526;28;20376;-70
2022/01/19 07:34:58;;;;;;;9.23;5.05;;;21.60;58.80;;;;;;5054425;28;20451;-70
2022/01/19 07:37:27;;;;;;;6.32;4.07;;;21.80;58.60;;;;;;5071490;28;20483;-71
2022/01/19 07:39:55;;;;;;;6.65;2.80;;;21.70;58.80;;;;;;5072548;28;20075;-71
2022/01/19 07:42:24;;;;;;;4.30;2.70;;;21.60;58.90;;;;;;5071371;28;20102;-71
2022/01/19 07:45:06;;;;;;;9.43;2.42;;;21.40;59.20;;;;;;5056719;28;20548;-71
2022/01/19 07:47:57;;;;;;;5.25;3.13;;;21.10;59.20;;;;;;5074854;28;20076;-71
2022/01/19 07:50:43;;;;;;;10.90;3.15;;;20.50;59.70;;;;;;5071308;28;20087;-71
2022/01/19 07:53:31;;;;;;;9.48;3.00;;;20.00;60.50;;;;;;5071286;28;20048;-72
2022/01/19 07:56:31;;;;;;;7.30;2.70;;;19.70;61.50;;;;;;5082042;28;20099;-72
2022/01/19 07:59:34;;;;;;;7.40;2.85;;;19.30;61.90;;;;;;5054483;28;20490;-72
2022/01/19 08:02:03;;;;;;;5.65;2.97;;;19.00;61.90;;;;;;5087650;28;20059;-72
2022/01/19 08:04:49;;;;;;;;;;;18.80;62.10;;;;;;5078084;28;20044;-73
2022/01/19 08:07:22;;;;;;;7.35;3.78;;;18.70;62.60;;;;;;5091608;28;19921;-72
2022/01/19 08:09:54;;;;;;;4.97;3.58;;;18.60;62.70;;;;;;5059176;28;20115;-71
2022/01/19 08:12:22;;;;;;;6.60;3.15;;;18.60;62.90;;;;;;5074813;28;20091;-71
2022/01/19 08:14:49;;;;;;;6.20;3.13;;;18.50;63.20;;;;;;5075705;28;20127;-71
2022/01/19 08:17:26;;;;;;;5.25;3.30;;;18.40;63.60;;;;;;5074972;28;20044;-69
2022/01/19 08:19:55;;;;;;;8.68;3.40;;;18.30;63.80;;;;;;5058098;28;20386;-71
2022/01/19 08:22:24;;;;;;;4.82;2.97;;;18.30;63.60;;;;;;5058244;28;20102;-70
2022/01/19 08:25:10;;;;;;;;;;;18.20;64.00;;;;;;5076844;28;20045;-70
2022/01/19 08:27:38;;;;;;;5.95;2.80;;;18.00;64.10;;;;;;5093106;28;20332;-69
2022/01/19 08:30:10;;;;;;;7.20;3.10;;;17.80;64.60;;;;;;5091618;28;20032;-69
2022/01/19 08:32:38;;;;;;;11.30;3.17;;;17.60;65.10;;;;;;5081028;28;20044;-69
2022/01/19 08:35:13;;;;;;;7.18;2.95;;;17.40;65.20;;;;;;5092549;28;20082;-71
2022/01/19 08:38:00;;;;;;;7.93;2.70;;;17.20;66.00;;;;;;5074595;28;20036;-69
2022/01/19 08:40:33;;;;;;;5.60;3.10;;;16.90;66.10;;;;;;5071798;28;20414;-71
2022/01/19 08:43:18;;;;;;;;;;;16.60;66.90;;;;;;5085929;28;20097;-69
2022/01/19 08:45:46;;;;;;;8.85;3.25;;;16.40;70.20;;;;;;5067296;28;19927;-71
2022/01/19 08:48:18;;;;;;;8.48;4.40;;;16.30;69.20;;;;;;5078331;28;20567;-69
2022/01/19 08:51:11;;;;;;;8.52;4.75;;;16.30;68.00;;;;;;5085371;28;20135;-70
2022/01/19 08:53:46;;;;;;;7.65;3.95;;;16.20;68.60;;;;;;5080923;28;20040;-70
2022/01/19 08:56:36;;;;;;;5.35;2.90;;;16.10;68.70;;;;;;5067289;28;20059;-70
2022/01/19 08:59:03;;;;;;;5.55;3.15;;;16.10;69.00;;;;;;5081634;28;20043;-70
2022/01/19 09:01:31;;;;;;;9.32;2.75;;;16.00;69.00;;;;;;5083418;28;20059;-70
2022/01/19 09:03:59;;;;;;;5.60;2.55;;;16.00;69.50;;;;;;5093374;28;20050;-69
2022/01/19 09:06:26;;;;;;;7.47;2.90;;;16.00;68.80;;;;;;5077207;28;20047;-69
2022/01/19 09:08:54;;;;;;;7.45;3.65;;;16.00;69.00;;;;;;5094267;28;20398;-70
2022/01/19 09:11:22;;;;;;;11.43;4.22;;;16.00;68.80;;;;;;5093765;28;20408;-68
2022/01/19 09:13:50;;;;;;;71.63;10.93;;;15.90;68.90;;;;;;5094333;28;20044;-69
2022/01/19 09:16:17;;;;;;;15.07;4.15;;;15.90;69.00;;;;;;5077408;28;20047;-69
2022/01/19 09:18:45;;;;;;;6.28;3.33;;;15.90;69.50;;;;;;5094109;28;20093;-69
2022/01/19 09:21:13;;;;;;;6.55;4.03;;;15.90;69.90;;;;;;5094015;28;20048;-70
2022/01/19 09:23:41;;;;;;;8.48;3.65;;;15.90;69.90;;;;;;5077387;28;20052;-70
2022/01/19 09:26:08;;;;;;;5.07;2.75;;;15.90;69.70;;;;;;5094000;28;20044;-70
2022/01/19 09:28:36;;;;;;;7.32;3.55;;;15.90;69.60;;;;;;5095096;28;20047;-70
2022/01/19 09:31:12;;;;;;;7.22;3.35;;;15.80;69.90;;;;;;5078002;28;20486;-70
2022/01/19 09:33:41;;;;;;;4.47;2.90;;;15.80;69.70;;;;;;5094924;28;20590;-70
2022/01/19 09:36:29;;;;;;;5.82;3.60;;;15.80;69.80;;;;;;5093525;28;20034;-70
2022/01/19 09:38:57;;;;;;;6.45;2.70;;;15.80;69.70;;;;;;5094964;28;20040;-71
2022/01/19 09:41:25;;;;;;;3.92;2.33;;;15.90;69.50;;;;;;5094532;28;20063;-70
2022/01/19 09:43:53;;;;;;;3.80;2.35;;;15.90;69.10;;;;;;5093335;28;20517;-70
2022/01/19 09:46:21;;;;;;;4.32;2.67;;;15.80;69.40;;;;;;5094818;28;20572;-71
2022/01/19 09:48:49;;;;;;;6.88;2.80;;;15.90;69.50;;;;;;5093230;28;20119;-70
2022/01/19 09:51:18;;;;;;;5.05;2.38;;;15.80;69.70;;;;;;5076797;28;20036;-70
2022/01/19 09:53:47;;;;;;;5.22;2.60;;;15.80;69.10;;;;;;5076238;28;20093;-71
2022/01/19 09:56:16;;;;;;;5.68;2.38;;;15.80;69.60;;;;;;5094391;28;20048;-70
2022/01/19 09:58:44;;;;;;;5.07;2.25;;;15.80;69.60;;;;;;5093283;28;20055;-70
2022/01/19 10:01:21;;;;;;;3.42;1.52;;;15.90;68.40;;;;;;5076976;28;20133;-70
2022/01/19 10:03:49;;;;;;;3.28;1.63;;;15.80;68.00;;;;;;5093134;28;20394;-70
2022/01/19 10:06:23;;;;;;;4.22;1.50;;;15.70;68.20;;;;;;5094443;28;20040;-69
2022/01/19 10:08:56;;;;;;;3.67;1.70;;;15.70;67.90;;;;;;5094336;28;20398;-70
2022/01/19 10:17:06;;;;;;;2.80;1.60;;;15.80;68.10;;;;;;5093006;28;20293;-70
2022/01/19 10:19:50;;;;;;;2.92;1.35;;;15.80;68.20;;;;;;5093121;28;20052;-71
2022/01/19 10:22:29;;;;;;;3.05;1.55;;;15.70;68.20;;;;;;5075917;28;20169;-70
2022/01/19 10:25:01;;;;;;;3.53;1.77;;;15.70;67.80;;;;;;5094278;28;20047;-71
2022/01/19 10:27:39;;;;;;;4.25;2.00;;;15.50;67.70;;;;;;5092931;28;20052;-70
2022/01/19 10:30:08;;;;;;;3.17;1.77;;;15.50;67.80;;;;;;5094044;28;20039;-70
2022/01/19 10:32:46;;;;;;;3.63;1.70;;;15.50;68.30;;;;;;5094758;28;20463;-71
2022/01/19 10:35:16;;;;;;;4.30;1.58;;;15.50;68.20;;;;;;5128121;27;20050;-70
2022/01/19 10:37:45;;;;;;;2.63;1.48;;;15.40;68.10;;;;;;5113739;27;20504;-68
2022/01/19 10:40:19;;;;;;;1.98;1.35;;;15.40;67.90;;;;;;5107361;28;20091;-70
2022/01/19 10:42:48;;;;;;;2.10;1.42;;;15.40;68.00;;;;;;5125487;27;20051;-70
2022/01/19 10:45:16;;;;;;;3.63;1.83;;;15.40;68.20;;;;;;5138283;27;20115;-70
2022/01/19 10:47:53;;;;;;;3.13;1.63;;;15.30;68.00;;;;;;5134143;27;20035;-70
2022/01/19 10:50:22;;;;;;;5.20;1.65;;;15.40;69.90;;;;;;5116530;28;20393;-69
2022/01/19 10:52:50;;;;;;;2.65;1.73;;;15.40;69.90;;;;;;5115908;27;20035;-71
2022/01/19 10:55:21;;;;;;;2.88;1.58;;;15.40;70.20;;;;;;5099731;28;20077;-69
2022/01/19 10:57:50;;;;;;;4.07;2.00;;;15.50;68.30;;;;;;5116504;28;20133;-70
2022/01/19 11:00:23;;;;;;;6.70;3.10;;;15.50;67.60;;;;;;5099119;28;20509;-69
2022/01/19 11:02:58;;;;;;;6.03;2.45;;;15.40;67.00;;;;;;5099035;28;20513;-69
2022/01/19 11:05:48;;;;;;;3.78;2.03;;;15.30;66.80;;;;;;5115825;28;20050;-69
2022/01/19 11:08:18;;;;;;;3.70;1.98;;;15.00;65.90;;;;;;5116617;28;20041;-70
2022/01/19 11:10:52;;;;;;;2.80;2.20;;;15.00;65.60;;;;;;5134083;28;20092;-70
2022/01/19 11:13:30;;;;;;;7.88;3.08;;;14.90;66.30;;;;;;5115731;28;20397;-70
2022/01/19 11:16:01;;;;;;;5.30;2.42;;;14.90;67.30;;;;;;5115902;28;20504;-69
2022/01/19 11:18:30;;;;;;;4.82;2.67;;;15.00;68.00;;;;;;5116234;28;20082;-69
2022/01/19 11:21:03;;;;;;;5.60;2.92;;;15.10;67.70;;;;;;5134073;28;20443;-69
2022/01/19 11:23:39;;;;;;;3.83;2.30;;;15.10;67.60;;;;;;5116045;28;20096;-70
2022/01/19 11:26:14;;;;;;;3.80;2.20;;;15.10;67.10;;;;;;5134284;28;20043;-69
2022/01/19 11:28:49;;;;;;;3.90;2.25;;;15.10;67.00;;;;;;5115835;28;20112;-70
2022/01/19 11:31:22;;;;;;;4.65;2.20;;;15.00;69.20;;;;;;5115945;28;20035;-69
2022/01/19 11:33:52;;;;;;;4.80;2.50;;;15.00;67.90;;;;;;5135272;27;20068;-70
2022/01/19 11:36:34;;;;;;;3.70;2.10;;;15.00;67.30;;;;;;5102761;27;20074;-70
2022/01/19 11:39:13;;;;;;;5.20;2.20;;;15.10;68.00;;;;;;5119755;27;20035;-70
2022/01/19 11:41:44;;;;;;;3.90;1.27;;;15.10;67.90;;;;;;5119836;27;20044;-70
2022/01/19 11:44:31;;;;;;;2.92;1.60;;;15.10;67.90;;;;;;5138092;27;20062;-70
2022/01/19 11:47:11;;;;;;;4.88;1.85;;;15.10;67.90;;;;;;5119309;27;20130;-70
2022/01/19 11:50:00;;;;;;;5.40;2.92;;;15.20;68.10;;;;;;5137786;27;20069;-71
2022/01/19 11:52:51;;;;;;;4.78;2.28;;;15.20;68.60;;;;;;5137888;27;20138;-70
2022/01/19 11:55:26;;;;;;;3.33;1.95;;;15.20;69.40;;;;;;5119353;27;20042;-70
2022/01/19 11:58:13;;;;;;;3.00;1.20;;;15.20;69.90;;;;;;5102339;27;20054;-71
2022/01/19 12:00:42;;;;;;;3.60;1.85;;;15.20;68.60;;;;;;5119403;27;20446;-70
2022/01/19 12:03:26;;;;;;;5.40;1.30;;;15.30;68.20;;;;;;5119603;27;20063;-71
2022/01/19 12:06:47;;;;;;;3.45;1.45;;;15.30;68.20;;;;;;5118398;27;20412;-70
2022/01/19 12:09:16;;;;;;;3.45;2.10;;;15.10;68.00;;;;;;5069981;27;20407;-71
2022/01/19 12:11:52;;;;;;;6.90;2.42;;;15.10;67.80;;;;;;5119102;27;20049;-71
2022/01/19 12:14:27;;;;;;;4.20;2.72;;;15.10;68.20;;;;;;5137505;27;20035;-69
2022/01/19 12:17:03;;;;;;;3.30;2.20;;;14.90;68.40;;;;;;5137571;27;20042;-70
2022/01/19 12:19:39;;;;;;;7.00;2.22;;;14.90;68.40;;;;;;5119342;27;20381;-70
2022/01/19 12:22:20;;;;;;;3.75;2.13;;;14.70;69.20;;;;;;5137420;27;20400;-70
2022/01/19 12:25:00;;;;;;;3.97;2.00;;;14.80;68.60;;;;;;5131453;27;20080;-68
2022/01/19 12:27:34;;;;;;;5.63;1.90;;;14.80;68.50;;;;;;5128519;27;20519;-70
2022/01/19 12:30:19;;;;;;;3.30;1.80;;;14.90;68.10;;;;;;5106841;27;20043;-70
2022/01/19 12:32:53;;;;;;;5.13;2.28;;;14.80;68.10;;;;;;5091647;28;20043;-68
2022/01/19 12:35:31;;;;;;;4.30;2.80;;;14.80;68.40;;;;;;5111078;28;20039;-70
2022/01/19 12:38:00;;;;;;;5.55;3.33;;;14.70;69.30;;;;;;5114190;27;20035;-70
2022/01/19 12:40:40;;;;;;;3.40;1.98;;;14.70;69.10;;;;;;5138924;27;20051;-70
2022/01/19 12:43:31;;;;;;;4.47;2.25;;;14.70;68.70;;;;;;5123808;27;20043;-70
2022/01/19 12:46:01;;;;;;;5.40;1.83;;;14.50;67.80;;;;;;5117454;27;20159;-70
2022/01/19 12:48:48;;;;;;;2.88;1.60;;;14.60;68.80;;;;;;5118466;27;20420;-70
2022/01/19 12:51:45;;;;;;;2.03;1.30;;;14.60;68.40;;;;;;5118648;27;20125;-68
2022/01/19 12:54:16;;;;;;;4.55;1.80;;;14.50;68.70;;;;;;5119639;27;20159;-69
2022/01/19 12:56:57;;;;;;;7.15;3.13;;;14.50;68.90;;;;;;5136971;27;20043;-70
2022/01/19 12:59:25;;;;;;;;;;;14.50;68.80;;;;;;5101959;27;20139;-70
2022/01/19 13:01:53;;;;;;;3.80;1.90;;;14.50;68.50;;;;;;5136545;27;19923;-70
2022/01/19 13:04:28;;;;;;;4.07;1.60;;;14.40;67.30;;;;;;5118279;27;20047;-70
2022/01/19 13:07:13;;;;;;;2.85;1.80;;;14.50;67.30;;;;;;5118723;27;20058;-70
2022/01/19 13:10:05;;;;;;;2.28;1.40;;;14.40;68.70;;;;;;5118258;27;20073;-70
2022/01/19 13:12:55;;;;;;;3.85;1.88;;;14.40;69.60;;;;;;5118193;27;20047;-70
2022/01/19 13:15:43;;;;;;;3.30;1.67;;;14.30;69.00;;;;;;5117988;27;20045;-70
2022/01/19 13:18:12;;;;;;;3.90;1.65;;;14.20;68.50;;;;;;5136132;27;20104;-70
2022/01/19 13:20:50;;;;;;;4.75;2.53;;;14.10;68.50;;;;;;5135764;27;20135;-69
2022/01/19 13:23:18;;;;;;;7.30;3.08;;;14.00;69.10;;;;;;5117835;27;20058;-69
2022/01/19 13:25:56;;;;;;;3.05;1.98;;;13.90;68.40;;;;;;5117307;27;20050;-69
2022/01/19 13:28:26;;;;;;;6.18;2.35;;;13.90;69.00;;;;;;5101160;27;20043;-70
2022/01/19 13:30:57;;;;;;;7.68;2.97;;;13.80;69.10;;;;;;5100803;27;20378;-69
2022/01/19 13:33:26;;;;;;;9.95;4.80;;;13.80;69.80;;;;;;5135753;27;20489;-70
2022/01/19 13:36:01;;;;;;;4.95;2.90;;;13.70;69.70;;;;;;5135779;27;20049;-70
2022/01/19 13:38:29;;;;;;;3.85;2.25;;;13.70;70.60;;;;;;5135822;27;20050;-69
2022/01/19 13:41:10;;;;;;;3.80;2.40;;;13.70;71.30;;;;;;5084372;28;20462;-70
2022/01/19 13:43:40;;;;;;;5.82;2.25;;;13.60;71.10;;;;;;5097069;28;20082;-70
2022/01/19 13:46:14;;;;;;;4.55;1.88;;;13.60;71.10;;;;;;5097241;28;20062;-70
2022/01/19 13:48:47;;;;;;;6.10;3.88;;;13.60;71.50;;;;;;5097032;28;20043;-69
2022/01/19 13:51:15;;;;;;;4.35;2.63;;;13.50;71.60;;;;;;5097070;28;20069;-70
2022/01/19 13:53:51;;;;;;;3.30;2.20;;;13.50;71.50;;;;;;5079825;28;20043;-69
2022/01/19 13:56:27;;;;;;;6.78;2.30;;;13.50;71.70;;;;;;5114953;28;20393;-69
2022/01/19 13:58:56;;;;;;;;;;;13.40;71.30;;;;;;5114637;28;20040;-70
2022/01/19 14:01:59;;;;;;;4.35;1.90;;;13.40;71.40;;;;;;5114562;28;20441;-70
2022/01/19 14:04:31;;;;;;;3.97;2.25;;;13.30;71.50;;;;;;5079813;28;20048;-70
2022/01/19 14:07:13;;;;;;;4.07;2.17;;;13.20;71.80;;;;;;5114836;28;20482;-70
2022/01/19 14:09:41;;;;;;;3.33;1.80;;;13.20;71.60;;;;;;5096675;28;20127;-70
2022/01/19 14:12:13;;;;;;;3.30;1.90;;;13.20;71.70;;;;;;5079411;28;20054;-70
2022/01/19 14:14:48;;;;;;;3.17;1.55;;;13.20;71.40;;;;;;5114880;28;20119;-70
2022/01/19 14:17:29;;;;;;;10.23;2.83;;;13.10;71.90;;;;;;5096473;28;20097;-69
2022/01/19 14:19:59;;;;;;;3.85;1.40;;;13.00;72.40;;;;;;5114547;28;20043;-69
2022/01/19 14:22:32;;;;;;;3.22;2.03;;;12.80;72.70;;;;;;5079259;28;20051;-68
2022/01/19 14:25:10;;;;;;;4.72;2.08;;;12.80;73.00;;;;;;5095999;28;20082;-68
2022/01/19 14:27:53;;;;;;;2.95;1.73;;;12.70;73.10;;;;;;5114552;28;20043;-68
2022/01/19 14:30:28;;;;;;;8.52;3.40;;;12.70;72.80;;;;;;5095931;28;20050;-66
2022/01/19 14:33:13;;;;;;;13.48;6.53;;;12.70;80.90;;;;;;5113766;28;20110;-66
2022/01/19 14:35:41;;;;;;;12.43;3.85;;;12.70;77.50;;;;;;5114172;28;20047;-67
2022/01/19 14:38:12;;;;;;;9.52;3.13;;;12.70;77.00;;;;;;5096069;28;20443;-63
2022/01/19 14:41:01;;;;;;;53.85;10.13;;;12.70;75.60;;;;;;5095399;28;20406;-66